createdAt,value
2022-12-15T00:01:32.533Z,-0.95
2022-12-15T00:04:36.427Z,-0.88
2022-12-15T00:07:40.361Z,-1.04
2022-12-15T00:10:44.202Z,-1.06
2022-12-15T00:13:48.140Z,-1.38
2022-12-15T00:16:52.039Z,-1.23
2022-12-15T00:19:55.691Z,-1.31
2022-12-15T00:23:00.610Z,-1.37
2022-12-15T00:26:04.393Z,-1.37
2022-12-15T00:29:08.159Z,-1.55
2022-12-15T00:32:11.792Z,-1.32
2022-12-15T00:35:15.706Z,-1.17
2022-12-15T00:38:31.678Z,-1.24
2022-12-15T00:41:18.337Z,-1.26
2022-12-15T00:44:03.672Z,-1.43
2022-12-15T00:46:54.650Z,-1.29
2022-12-15T00:49:58.513Z,-1.33
2022-12-15T00:53:02.361Z,-1.22
2022-12-15T00:56:06.140Z,-1.26
2022-12-15T00:59:11.135Z,-1.34
2022-12-15T01:02:14.925Z,-1.36
2022-12-15T01:05:18.735Z,-1.41
2022-12-15T01:08:22.789Z,-1.41
2022-12-15T01:11:26.841Z,-1.57
2022-12-15T01:14:30.769Z,-1.44
2022-12-15T01:17:35.226Z,-1.37
2022-12-15T01:20:20.453Z,-1.28
2022-12-15T01:23:05.813Z,-1.29
2022-12-15T01:25:52.540Z,-1.51
2022-12-15T01:28:37.527Z,-1.65
2022-12-15T01:31:22.849Z,-1.58
2022-12-15T01:34:07.702Z,-1.49
2022-12-15T01:36:52.834Z,-1.51
2022-12-15T01:39:56.751Z,-1.42
2022-12-15T01:42:42.405Z,-1.51
2022-12-15T01:45:27.640Z,-1.40
2022-12-15T01:48:17.744Z,-1.46
2022-12-15T01:51:14.973Z,-1.53
2022-12-15T01:54:00.349Z,-1.63
2022-12-15T01:56:58.921Z,-1.63
2022-12-15T01:59:51.642Z,-1.72
2022-12-15T02:02:40.440Z,-1.82
2022-12-15T02:05:28.404Z,-1.82
2022-12-15T02:08:13.896Z,-1.73
2022-12-15T02:11:18.621Z,-1.92
2022-12-15T02:14:09.172Z,-1.87
2022-12-15T02:17:03.959Z,-1.89
2022-12-15T02:20:13.802Z,-1.92
2022-12-15T02:23:04.769Z,-1.96
2022-12-15T02:26:14.700Z,-1.90
2022-12-15T02:29:13.219Z,-1.78
2022-12-15T02:32:30.923Z,-1.70
2022-12-15T02:35:26.143Z,-1.85
2022-12-15T02:38:12.167Z,-1.99
2022-12-15T02:40:59.389Z,-2.06
2022-12-15T02:43:44.678Z,-2.18
2022-12-15T02:46:58.351Z,-2.03
2022-12-15T02:49:58.733Z,-2.09
2022-12-15T02:53:14.323Z,-2.13
2022-12-15T02:56:19.141Z,-2.08
2022-12-15T02:59:17.551Z,-2.35
2022-12-15T03:02:06.717Z,-2.23
2022-12-15T03:04:52.614Z,-2.24
2022-12-15T03:07:37.412Z,-2.27
2022-12-15T03:10:25.762Z,-2.26
2022-12-15T03:13:10.565Z,-2.24
2022-12-15T03:15:55.842Z,-2.27
2022-12-15T03:18:41.111Z,-2.30
2022-12-15T03:21:26.419Z,-2.38
2022-12-15T03:24:11.698Z,-2.33
2022-12-15T03:26:56.827Z,-2.31
2022-12-15T03:29:41.970Z,-2.27
2022-12-15T03:32:28.341Z,-2.20
2022-12-15T03:35:13.780Z,-2.26
2022-12-15T03:37:58.973Z,-2.28
2022-12-15T03:40:44.477Z,-2.17
2022-12-15T03:43:29.990Z,-2.31
2022-12-15T03:46:15.428Z,-2.38
2022-12-15T03:49:00.809Z,-2.44
2022-12-15T03:51:46.244Z,-2.33
2022-12-15T03:54:31.545Z,-2.38
2022-12-15T03:57:16.421Z,-2.39
2022-12-15T04:00:01.832Z,-2.54
2022-12-15T04:02:50.067Z,-2.42
2022-12-15T04:05:36.055Z,-2.50
2022-12-15T04:08:26.700Z,-2.40
2022-12-15T04:11:11.946Z,-2.48
2022-12-15T04:13:57.086Z,-2.54
2022-12-15T04:16:42.145Z,-2.71
2022-12-15T04:19:45.822Z,-2.73
2022-12-15T04:22:30.996Z,-2.62
2022-12-15T04:25:37.589Z,-2.53
2022-12-15T04:28:41.551Z,-2.59
2022-12-15T04:31:48.311Z,-2.68
2022-12-15T04:34:52.158Z,-2.72
2022-12-15T04:37:56.193Z,-2.85
2022-12-15T04:40:59.901Z,-2.72
2022-12-15T04:44:03.567Z,-2.89
2022-12-15T04:47:07.406Z,-2.91
2022-12-15T04:50:11.174Z,-2.84
2022-12-15T04:53:14.989Z,-2.90
2022-12-15T04:56:18.998Z,-2.62
2022-12-15T04:59:23.155Z,-2.72
2022-12-15T05:02:27.134Z,-2.77
2022-12-15T05:05:30.981Z,-2.78
2022-12-15T05:08:34.883Z,-2.92
2022-12-15T05:11:38.938Z,-2.98
2022-12-15T05:14:42.986Z,-2.95
2022-12-15T05:17:47.852Z,-2.88
2022-12-15T05:20:51.928Z,-3.09
2022-12-15T05:23:55.735Z,-3.00
2022-12-15T05:26:59.580Z,-3.09
2022-12-15T05:30:03.543Z,-3.12
2022-12-15T05:32:49.928Z,-3.33
2022-12-15T05:35:35.339Z,-3.26
2022-12-15T05:38:20.445Z,-3.08
2022-12-15T05:41:05.795Z,-3.20
2022-12-15T05:43:50.874Z,-3.43
2022-12-15T05:46:36.617Z,-3.30
2022-12-15T05:49:24.411Z,-3.31
2022-12-15T05:52:09.552Z,-3.27
2022-12-15T05:54:54.801Z,-3.26
2022-12-15T05:57:39.972Z,-3.13
2022-12-15T06:00:25.100Z,-3.11
2022-12-15T06:03:10.353Z,-3.17
2022-12-15T06:05:56.701Z,-3.19
2022-12-15T06:08:42.737Z,-3.20
2022-12-15T06:11:27.759Z,-3.27
2022-12-15T06:14:13.251Z,-3.20
2022-12-15T06:16:59.996Z,-3.19
2022-12-15T06:19:45.301Z,-3.07
2022-12-15T06:22:30.568Z,-3.07
2022-12-15T06:25:15.872Z,-3.07
2022-12-15T06:28:01.968Z,-3.13
2022-12-15T06:30:47.695Z,-3.28
2022-12-15T06:33:33.786Z,-3.39
2022-12-15T06:36:20.190Z,-3.46
2022-12-15T06:39:08.284Z,-3.59
2022-12-15T06:41:53.580Z,-3.58
2022-12-15T06:44:38.746Z,-3.61
2022-12-15T06:47:23.893Z,-3.52
2022-12-15T06:50:09.699Z,-3.46
2022-12-15T06:52:54.871Z,-3.53
2022-12-15T06:55:41.553Z,-3.55
2022-12-15T06:58:27.756Z,-3.42
2022-12-15T07:01:13.048Z,-3.29
2022-12-15T07:04:03.084Z,-3.32
2022-12-15T07:06:49.194Z,-3.28
2022-12-15T07:09:34.489Z,-3.47
2022-12-15T07:12:19.504Z,-3.41
2022-12-15T07:15:05.350Z,-3.37
2022-12-15T07:17:51.058Z,-3.29
2022-12-15T07:20:36.303Z,-3.09
2022-12-15T07:23:39.684Z,-3.12
2022-12-15T07:26:27.125Z,-3.38
2022-12-15T07:29:12.321Z,-3.08
2022-12-15T07:31:57.722Z,-3.20
2022-12-15T07:34:43.036Z,-3.28
2022-12-15T07:37:29.913Z,-3.43
2022-12-15T07:40:15.050Z,-3.28
2022-12-15T07:43:01.006Z,-3.46
2022-12-15T07:45:51.883Z,-3.39
2022-12-15T07:48:37.081Z,-3.37
2022-12-15T07:51:22.787Z,-3.43
2022-12-15T07:54:11.385Z,-3.55
2022-12-15T07:56:56.456Z,-3.75
2022-12-15T07:59:42.278Z,-3.68
2022-12-15T08:02:27.477Z,-3.85
2022-12-15T08:05:12.568Z,-4.06
2022-12-15T08:07:58.605Z,-3.91
2022-12-15T08:10:43.563Z,-3.97
2022-12-15T08:14:00.906Z,-3.96
2022-12-15T08:16:34.522Z,-4.09
2022-12-15T08:19:19.875Z,-3.99
2022-12-15T08:22:05.150Z,-3.97
2022-12-15T08:24:50.146Z,-3.95
2022-12-15T08:27:35.800Z,-4.27
2022-12-15T08:30:21.690Z,-4.07
2022-12-15T08:33:06.974Z,-4.02
2022-12-15T08:35:58.332Z,-4.02
2022-12-15T08:38:44.765Z,-4.08
2022-12-15T08:41:32.006Z,-3.92
2022-12-15T08:44:17.362Z,-3.88
2022-12-15T08:47:02.792Z,-3.80
2022-12-15T08:49:48.641Z,-3.77
2022-12-15T08:52:34.839Z,-3.74
2022-12-15T08:55:22.526Z,-3.80
2022-12-15T08:58:07.637Z,-3.80
2022-12-15T09:00:52.905Z,-2.83
2022-12-15T09:03:38.981Z,-3.19
2022-12-15T09:06:30.862Z,-3.51
2022-12-15T09:09:16.021Z,-3.51
2022-12-15T09:12:01.120Z,-3.55
2022-12-15T09:14:46.440Z,-3.43
2022-12-15T09:17:31.521Z,-3.45
2022-12-15T09:20:18.073Z,-3.41
2022-12-15T09:23:03.337Z,-3.30
2022-12-15T09:25:48.317Z,-3.11
2022-12-15T09:28:33.988Z,-3.27
2022-12-15T09:31:25.378Z,-3.42
2022-12-15T09:34:15.347Z,-3.28
2022-12-15T09:37:00.301Z,-3.26
2022-12-15T09:39:45.332Z,-3.12
2022-12-15T09:42:31.879Z,-2.93
2022-12-15T09:45:26.137Z,-2.88
2022-12-15T09:48:18.711Z,-2.91
2022-12-15T09:51:04.930Z,-2.74
2022-12-15T09:53:55.116Z,-2.63
2022-12-15T09:56:58.160Z,-2.57
2022-12-15T10:00:01.762Z,-2.69
2022-12-15T10:03:25.002Z,-2.56
2022-12-15T10:06:32.899Z,-2.39
2022-12-15T10:09:22.451Z,-2.31
2022-12-15T10:12:25.299Z,-2.30
2022-12-15T10:15:41.371Z,-2.30
2022-12-15T10:18:39.929Z,-2.09
2022-12-15T10:21:28.179Z,-1.92
2022-12-15T10:27:36.416Z,-1.88
2022-12-15T10:30:21.982Z,-1.79
2022-12-15T10:33:22.771Z,-1.77
2022-12-15T10:36:14.283Z,-1.64
2022-12-15T10:38:59.285Z,-1.59
2022-12-15T10:41:44.321Z,-1.49
2022-12-15T10:44:38.982Z,-1.32
2022-12-15T10:47:28.210Z,-1.15
2022-12-15T10:50:25.603Z,-1.22
2022-12-15T10:53:38.595Z,-0.94
2022-12-15T10:56:33.584Z,-0.80
2022-12-15T10:59:36.433Z,-0.71
2022-12-15T11:02:24.246Z,-0.60
2022-12-15T11:05:16.389Z,-0.57
2022-12-15T11:08:16.654Z,-0.62
2022-12-15T11:11:26.113Z,-0.55
2022-12-15T11:14:18.047Z,-0.29
2022-12-15T11:17:07.012Z,-0.18
2022-12-15T11:20:03.551Z,-0.06
2022-12-15T11:22:57.251Z,-0.03
2022-12-15T11:25:53.639Z,0.03
2022-12-15T11:29:02.678Z,0.15
2022-12-15T11:31:48.990Z,0.29
2022-12-15T11:34:38.094Z,0.39
2022-12-15T11:37:34.018Z,0.49
2022-12-15T11:40:35.783Z,0.58
2022-12-15T11:43:26.864Z,0.58
2022-12-15T11:46:18.927Z,0.69
2022-12-15T11:49:20.401Z,0.82
2022-12-15T11:52:40.611Z,0.96
2022-12-15T11:55:44.619Z,1.05
2022-12-15T11:59:08.717Z,1.18
2022-12-15T12:02:28.156Z,1.01
2022-12-15T12:05:41.598Z,1.11
2022-12-15T12:08:54.225Z,1.29
2022-12-15T12:11:55.253Z,1.39
2022-12-15T12:15:02.162Z,1.66
2022-12-15T12:17:55.447Z,1.73
2022-12-15T12:20:50.673Z,1.71
2022-12-15T12:23:52.452Z,1.99
2022-12-15T12:26:51.859Z,1.91
2022-12-15T12:29:53.106Z,1.87
2022-12-15T12:32:50.715Z,2.49
2022-12-15T12:35:45.589Z,2.52
2022-12-15T12:38:37.247Z,2.42
2022-12-15T12:41:31.567Z,2.40
2022-12-15T12:44:30.976Z,2.45
2022-12-15T12:47:36.026Z,2.41
2022-12-15T12:50:25.856Z,2.51
2022-12-15T12:53:27.267Z,2.37
2022-12-15T12:56:33.416Z,2.50
2022-12-15T12:59:30.623Z,2.85
2022-12-15T13:02:15.556Z,2.65
2022-12-15T13:05:21.352Z,2.59
2022-12-15T13:08:06.349Z,2.62
2022-12-15T13:10:54.227Z,2.60
2022-12-15T13:13:51.024Z,2.67
2022-12-15T13:19:57.153Z,2.66
2022-12-15T13:22:42.287Z,2.70
2022-12-15T13:25:35.689Z,2.70
2022-12-15T13:28:36.037Z,2.85
2022-12-15T13:31:28.968Z,2.75
2022-12-15T13:34:20.871Z,2.91
2022-12-15T13:37:26.202Z,2.92
2022-12-15T13:40:35.800Z,2.78
2022-12-15T13:43:26.795Z,2.55
2022-12-15T13:46:20.273Z,2.69
2022-12-15T13:49:16.025Z,2.69
2022-12-15T13:52:04.012Z,2.59
2022-12-15T13:55:01.778Z,2.63
2022-12-15T13:58:02.150Z,2.63
2022-12-15T14:00:55.939Z,2.59
2022-12-15T14:04:16.452Z,2.46
2022-12-15T14:07:03.128Z,2.50
2022-12-15T14:09:50.263Z,2.51
2022-12-15T14:12:39.558Z,2.49
2022-12-15T14:15:31.531Z,2.52
2022-12-15T14:18:32.077Z,2.24
2022-12-15T14:21:26.981Z,2.26
2022-12-15T14:24:42.504Z,2.32
2022-12-15T14:27:30.922Z,2.19
2022-12-15T14:30:22.322Z,1.91
2022-12-15T14:33:15.058Z,2.02
2022-12-15T14:36:01.069Z,2.01
2022-12-15T14:39:00.090Z,1.97
2022-12-15T14:41:50.629Z,1.96
2022-12-15T14:44:39.712Z,1.92
2022-12-15T14:47:33.803Z,1.68
2022-12-15T14:53:28.321Z,1.64
2022-12-15T14:56:13.690Z,1.61
2022-12-15T14:59:04.426Z,1.39
2022-12-15T15:01:58.794Z,1.36
2022-12-15T15:03:05.362Z,2.60
2022-12-15T15:03:06.093Z,1.63
2022-12-15T15:04:56.692Z,1.30
2022-12-15T15:07:45.485Z,1.22
2022-12-15T15:10:30.927Z,1.21
2022-12-15T15:13:20.623Z,0.99
2022-12-15T15:16:13.006Z,1.00
2022-12-15T15:19:02.450Z,1.00
2022-12-15T15:21:47.924Z,0.90
2022-12-15T15:24:37.291Z,1.02
2022-12-15T15:27:26.864Z,1.00
2022-12-15T15:30:23.827Z,0.93
2022-12-15T15:33:09.995Z,1.09
2022-12-15T15:35:57.629Z,1.08
2022-12-15T15:38:46.575Z,1.05
2022-12-15T15:41:33.003Z,1.06
2022-12-15T15:44:18.128Z,1.05
2022-12-15T15:47:04.348Z,0.93
2022-12-15T15:49:50.923Z,0.87
2022-12-15T15:52:35.966Z,0.98
2022-12-15T15:55:29.508Z,0.80
2022-12-15T15:58:17.030Z,0.79
2022-12-15T16:01:03.829Z,0.77
2022-12-15T16:03:51.780Z,0.70
2022-12-15T16:06:39.770Z,0.65
2022-12-15T16:09:28.544Z,0.82
2022-12-15T16:12:29.578Z,0.80
2022-12-15T16:15:17.944Z,0.81
2022-12-15T16:18:03.477Z,0.86
2022-12-15T16:20:51.717Z,0.83
2022-12-15T16:23:37.493Z,0.74
2022-12-15T16:26:29.134Z,0.74
2022-12-15T16:29:15.444Z,0.54
2022-12-15T16:32:00.354Z,0.63
2022-12-15T16:34:45.738Z,0.36
2022-12-15T16:37:34.802Z,0.18
2022-12-15T16:40:26.144Z,0.08
2022-12-15T16:43:17.386Z,0.24
2022-12-15T16:46:02.408Z,0.11
2022-12-15T16:48:47.718Z,-0.10
2022-12-15T16:51:39.110Z,-0.13
2022-12-15T16:54:27.347Z,0.07
2022-12-15T16:57:12.317Z,0.13
2022-12-15T16:59:57.597Z,0.16
2022-12-15T17:02:42.919Z,0.07
2022-12-15T17:05:32.376Z,0.13
2022-12-15T17:08:21.196Z,0.02
2022-12-15T17:11:07.179Z,0.06
2022-12-15T17:13:56.038Z,-0.12
2022-12-15T17:16:41.446Z,-0.10
2022-12-15T17:19:26.735Z,-0.18
2022-12-15T17:22:15.569Z,-0.12
2022-12-15T17:25:00.581Z,-0.25
2022-12-15T17:27:46.361Z,-0.33
2022-12-15T17:30:31.651Z,-0.25
2022-12-15T17:33:19.305Z,-0.35
2022-12-15T17:36:15.394Z,-0.06
2022-12-15T17:39:01.445Z,-0.08
2022-12-15T17:42:02.638Z,-0.19
2022-12-15T17:44:49.129Z,-0.26
2022-12-15T17:47:36.791Z,-0.32
2022-12-15T17:50:21.671Z,-0.38
2022-12-15T17:53:07.036Z,-0.32
2022-12-15T17:55:54.115Z,-0.29
2022-12-15T17:58:39.862Z,-0.38
2022-12-15T18:01:25.207Z,-0.31
2022-12-15T18:04:10.712Z,-0.45
2022-12-15T18:07:01.604Z,-0.59
2022-12-15T18:09:48.545Z,-0.62
2022-12-15T18:12:35.329Z,-0.46
2022-12-15T18:15:23.781Z,-0.42
2022-12-15T18:18:08.769Z,-0.35
2022-12-15T18:21:00.284Z,-0.38
2022-12-15T18:23:47.526Z,-0.45
2022-12-15T18:26:37.788Z,-0.17
2022-12-15T18:29:22.876Z,-0.17
2022-12-15T18:32:09.479Z,-0.17
2022-12-15T18:34:55.035Z,-0.16
2022-12-15T18:37:40.127Z,-0.24
2022-12-15T18:40:28.259Z,1.45
2022-12-15T18:43:16.560Z,1.22
2022-12-15T18:46:01.695Z,0.58
2022-12-15T18:48:46.949Z,0.40
2022-12-15T18:51:32.239Z,0.11
2022-12-15T18:54:20.959Z,0.19
2022-12-15T18:57:28.910Z,0.01
2022-12-15T19:00:14.136Z,-0.01
2022-12-15T19:03:00.397Z,0.03
2022-12-15T19:05:46.954Z,0.02
2022-12-15T19:08:36.039Z,-0.11
2022-12-15T19:11:30.988Z,-0.02
2022-12-15T19:14:36.428Z,-0.11
2022-12-15T19:17:41.589Z,0.18
2022-12-15T19:20:45.770Z,0.23
2022-12-15T19:23:31.402Z,0.09
2022-12-15T19:26:16.811Z,0.13
2022-12-15T19:29:02.086Z,-0.06
2022-12-15T19:31:47.921Z,0.11
2022-12-15T19:34:33.592Z,0.15
2022-12-15T19:37:27.976Z,0.15
2022-12-15T19:40:22.124Z,0.30
2022-12-15T19:43:07.189Z,0.20
2022-12-15T19:45:53.192Z,0.11
2022-12-15T19:48:38.305Z,-0.03
2022-12-15T19:51:24.154Z,0.06
2022-12-15T19:54:17.095Z,0.12
2022-12-15T19:57:02.050Z,0.11
2022-12-15T19:59:47.209Z,0.12
2022-12-15T20:02:32.589Z,0.25
2022-12-15T20:05:19.484Z,0.27
2022-12-15T20:08:05.067Z,0.29
2022-12-15T20:10:50.866Z,0.26
2022-12-15T20:13:36.215Z,0.24
2022-12-15T20:16:22.054Z,0.12
2022-12-15T20:19:07.247Z,0.26
2022-12-15T20:21:52.367Z,0.32
2022-12-15T20:24:37.660Z,0.31
2022-12-15T20:27:22.587Z,0.31
2022-12-15T20:30:16.395Z,0.20
2022-12-15T20:33:03.899Z,0.32
2022-12-15T20:35:50.340Z,0.33
2022-12-15T20:38:36.073Z,0.33
2022-12-15T20:41:24.025Z,0.30
2022-12-15T20:44:12.911Z,0.32
2022-12-15T20:46:58.324Z,0.17
2022-12-15T20:49:43.760Z,0.31
2022-12-15T20:52:29.394Z,0.31
2022-12-15T20:55:14.709Z,0.20
2022-12-15T20:57:59.778Z,0.17
2022-12-15T21:00:46.442Z,0.17
2022-12-15T21:03:34.932Z,0.20
2022-12-15T21:06:20.942Z,0.26
2022-12-15T21:09:11.988Z,0.26
2022-12-15T21:11:58.379Z,0.29
2022-12-15T21:14:43.476Z,0.25
2022-12-15T21:17:28.776Z,0.23
2022-12-15T21:20:14.192Z,0.25
2022-12-15T21:22:59.578Z,0.29
2022-12-15T21:25:45.668Z,0.27
2022-12-15T21:28:30.818Z,0.26
2022-12-15T21:31:17.279Z,0.19
2022-12-15T21:34:02.346Z,0.15
2022-12-15T21:36:51.719Z,0.17
2022-12-15T21:39:37.552Z,0.13
2022-12-15T21:42:22.851Z,0.03
2022-12-15T21:45:19.753Z,-0.05
2022-12-15T21:48:23.128Z,-0.07
2022-12-15T21:51:13.408Z,-0.11
2022-12-15T21:53:59.019Z,-0.15
2022-12-15T21:56:45.534Z,-0.29
2022-12-15T21:59:32.608Z,-0.27
2022-12-15T22:02:26.809Z,-0.21
2022-12-15T22:05:23.557Z,-0.31
2022-12-15T22:08:20.353Z,-0.32
2022-12-15T22:11:12.116Z,-0.46
2022-12-15T22:14:00.766Z,-0.34
2022-12-15T22:16:45.560Z,-0.39
2022-12-15T22:19:30.662Z,-0.48
2022-12-15T22:22:16.571Z,-0.54
2022-12-15T22:25:01.612Z,-0.51
2022-12-15T22:27:47.896Z,-0.52
2022-12-15T22:30:33.104Z,-0.47
2022-12-15T22:33:23.873Z,-0.42
2022-12-15T22:36:09.092Z,-0.47
2022-12-15T22:38:54.142Z,-0.57
2022-12-15T22:41:43.681Z,-0.64
2022-12-15T22:44:34.604Z,-0.67
2022-12-15T22:47:19.859Z,-0.84
2022-12-15T22:50:07.045Z,-0.87
2022-12-15T22:52:52.765Z,-0.88
2022-12-15T22:55:41.241Z,-0.79
2022-12-15T22:58:36.892Z,-0.82
2022-12-15T23:01:22.148Z,-0.91
2022-12-15T23:04:07.574Z,-1.06
2022-12-15T23:06:52.992Z,-1.01
2022-12-15T23:09:40.283Z,-1.03
2022-12-15T23:12:25.211Z,-1.03
2022-12-15T23:15:29.255Z,-1.04
2022-12-15T23:18:14.717Z,-1.04
2022-12-15T23:20:59.698Z,-1.07
2022-12-15T23:23:45.048Z,-1.13
2022-12-15T23:26:30.194Z,-1.10
2022-12-15T23:29:15.503Z,-1.07
2022-12-15T23:32:00.653Z,-1.04
2022-12-15T23:34:45.868Z,-1.09
2022-12-15T23:37:31.355Z,-1.20
2022-12-15T23:40:21.347Z,-1.15
2022-12-15T23:43:06.194Z,-1.20
2022-12-15T23:46:00.184Z,-1.41
2022-12-15T23:48:45.426Z,-1.32
2022-12-15T23:51:30.496Z,-1.50
2022-12-15T23:54:15.671Z,-1.19
2022-12-15T23:57:01.078Z,-1.49
2022-12-15T23:59:46.317Z,-1.34
